Lady Damla — V7MF8 — position and weather

sailwx.info

Track history (hours):
 
Tides and Currents Weather Stations Pressure Air Temp Water Temp Dewpoint Dewpoint Depression Visibility Wind Speed Wind Dir Waves Ship Positions

Lady Damla

Last reported at 2017-Oct-16 19:13 UTC. Time now 2017-Oct-18 11:14 UTC.
Position N 36°51' W 075°52'.

Length 170 m; draft 9.5 m.

Type: Cargo ship. MMSI: 538006352.

Date/timePositionNaut miles runAvg speedWind from/ knotsBaromVisibWave heightAir tempDewpointWater temp
2017-Oct-16 19:13N 36°51' W 075°52'212.1
2017-Oct-16 19:00N 36°53' W 075°54'612.1
2017-Oct-16 18:30N 36°57' W 075°60'611.6
2017-Oct-16 18:00N 36°58' W 076°07'1011.0
2017-Oct-16 17:04N 36°58' W 076°20'110.1
2017-Oct-16 16:57N 36°57' W 076°20'4 9.7
2017-Oct-16 16:30N 36°53' W 076°20'3 6.7
2017-Oct-16 16:00N 36°50' W 076°18'1 2.7
2017-Oct-16 15:30N 36°49' W 076°17'0 0.0
2017-Oct-16 14:59N 36°49' W 076°17'0 0.0
2017-Oct-16 14:30N 36°49' W 076°17'0 0.0
2017-Oct-16 13:29N 36°49' W 076°17'0 0.0
2017-Oct-16 13:00N 36°49' W 076°17'0 0.0
2017-Oct-16 12:30N 36°49' W 076°17'0 0.0
2017-Oct-16 12:00N 36°49' W 076°17'0 0.0
2017-Oct-16 11:29N 36°49' W 076°17'0 0.0
2017-Oct-16 11:00N 36°49' W 076°17'0 0.0
2017-Oct-16 10:29N 36°49' W 076°17'0 0.0
2017-Oct-16 09:59N 36°49' W 076°17'0 0.0
2017-Oct-16 09:29N 36°49' W 076°17'0 0.0
2017-Oct-16 09:00N 36°49' W 076°17'0 0.0
2017-Oct-16 08:30N 36°49' W 076°17'0 0.0
2017-Oct-16 08:00N 36°49' W 076°17'0 0.0
2017-Oct-16 07:30N 36°49' W 076°17'0 0.0
2017-Oct-16 07:00N 36°49' W 076°17'0 0.0
2017-Oct-16 06:26N 36°49' W 076°17'0 0.0
2017-Oct-16 05:59N 36°49' W 076°17'0 0.0
2017-Oct-16 05:29N 36°49' W 076°17'0 0.0
2017-Oct-16 04:59N 36°49' W 076°17'0 0.0
2017-Oct-16 04:29N 36°49' W 076°17'0 0.0
2017-Oct-16 03:59N 36°49' W 076°17'0 0.0
2017-Oct-16 03:29N 36°49' W 076°17'0 0.0
2017-Oct-16 03:00N 36°49' W 076°17'0 0.0
2017-Oct-16 02:29N 36°49' W 076°17'0 0.0
2017-Oct-16 02:00N 36°49' W 076°17'0 0.0
2017-Oct-16 01:29N 36°49' W 076°17'0 0.0
2017-Oct-16 00:59N 36°49' W 076°17'0 0.0
2017-Oct-16 00:29N 36°49' W 076°17'0 0.0
2017-Oct-15 23:59N 36°49' W 076°17'0 0.0
2017-Oct-15 23:30N 36°49' W 076°17'0 0.0
2017-Oct-15 22:59N 36°49' W 076°17'0 0.0
2017-Oct-15 22:30N 36°49' W 076°17'0 0.0
2017-Oct-15 21:59N 36°49' W 076°17'0 0.0
2017-Oct-15 21:30N 36°49' W 076°17'0 0.0
2017-Oct-15 20:59N 36°49' W 076°17'0 0.0
2017-Oct-15 20:30N 36°49' W 076°17'0 0.0
2017-Oct-15 20:00N 36°49' W 076°17'0 0.0
2017-Oct-15 19:30N 36°49' W 076°17'0 0.0
2017-Oct-15 15:44N 36°49' W 076°17'0 0.0
2017-Oct-15 15:27N 36°49' W 076°17'0 0.0
2017-Oct-15 15:00N 36°49' W 076°17'0 0.0
2017-Oct-15 13:59N 36°49' W 076°17'0 0.0
2017-Oct-15 13:29N 36°49' W 076°17'4 0.6
2017-Oct-15 06:39N 36°52' W 076°20'210.1
2017-Oct-15 06:28N 36°54' W 076°20'3 6.4
2017-Oct-15 05:57N 36°57' W 076°22'0 0.4
2017-Oct-15 05:26N 36°57' W 076°22'0 0.1
2017-Oct-15 04:59N 36°57' W 076°22'0 0.0
2017-Oct-15 04:29N 36°57' W 076°22'0 0.0
2017-Oct-15 03:53N 36°57' W 076°22'0 0.0
2017-Oct-15 03:29N 36°57' W 076°22'0 0.0
2017-Oct-15 02:08N 36°57' W 076°22'0 0.1
2017-Oct-15 01:56N 36°57' W 076°22'0 0.0
2017-Oct-15 01:20N 36°57' W 076°22'0 0.1
2017-Oct-15 00:56N 36°57' W 076°22'0 0.1
2017-Oct-15 00:26N 36°57' W 076°22'0 0.1
2017-Oct-14 22:23N 36°57' W 076°22'0 0.0
2017-Oct-14 21:59N 36°57' W 076°22'0 0.0
2017-Oct-14 21:26N 36°57' W 076°22'0 0.0
2017-Oct-14 19:20N 36°57' W 076°22'0 0.0
2017-Oct-14 18:53N 36°57' W 076°22'0 0.0
2017-Oct-14 18:23N 36°57' W 076°22'0 0.0
2017-Oct-14 17:44N 36°57' W 076°22'0 0.0
2017-Oct-14 17:08N 36°57' W 076°22'0 0.1
2017-Oct-14 16:47N 36°57' W 076°22'0 0.1
2017-Oct-14 16:29N 36°57' W 076°22'0 0.1
2017-Oct-14 15:59N 36°57' W 076°22'0 0.1
2017-Oct-14 15:29N 36°57' W 076°22'0 0.0
2017-Oct-14 14:59N 36°57' W 076°22'0 0.0
2017-Oct-14 14:23N 36°57' W 076°22'0 0.1
2017-Oct-14 13:59N 36°57' W 076°22'0 0.0
2017-Oct-14 12:44N 36°57' W 076°22'0 0.0
2017-Oct-14 12:26N 36°57' W 076°22'0 0.1
2017-Oct-14 11:59N 36°57' W 076°22'0 0.1
2017-Oct-14 11:26N 36°57' W 076°22'0 0.0
2017-Oct-14 04:35N 36°57' W 076°22'0 0.1
2017-Oct-14 04:29N 36°57' W 076°22'0 0.1
2017-Oct-14 03:56N 36°57' W 076°22'0 0.1
2017-Oct-14 03:29N 36°57' W 076°22'0 0.1
2017-Oct-14 02:59N 36°57' W 076°22'0 0.0
2017-Oct-14 02:23N 36°57' W 076°22'0 0.0
2017-Oct-13 21:53N 36°57' W 076°22'0 0.0
2017-Oct-13 21:08N 36°57' W 076°22'0 0.0
2017-Oct-13 20:59N 36°57' W 076°22'0 0.0
2017-Oct-13 20:26N 36°57' W 076°22'0 0.0
2017-Oct-13 17:23N 36°57' W 076°22'0 0.0
2017-Oct-13 14:47N 36°57' W 076°22'0 0.2
2017-Oct-13 14:29N 36°57' W 076°22'0 0.1
2017-Oct-13 13:59N 36°57' W 076°22'0 0.0
2017-Oct-13 13:29N 36°57' W 076°22'0 0.1
2017-Oct-13 12:56N 36°57' W 076°22'0 0.0
2017-Oct-13 12:23N 36°57' W 076°22'0 0.0
2017-Oct-13 11:56N 36°57' W 076°22'0 0.1
2017-Oct-13 11:29N 36°57' W 076°22'0 0.0
2017-Oct-13 00:53N 36°57' W 076°22'0 0.0
2017-Oct-13 00:26N 36°57' W 076°22'0 0.0
2017-Oct-12 15:14N 36°57' W 076°22'0 0.1
2017-Oct-12 14:59N 36°57' W 076°22'0 0.0
2017-Oct-12 14:29N 36°57' W 076°22'0 0.1
2017-Oct-12 13:23N 36°57' W 076°22'0 0.1
2017-Oct-12 12:59N 36°57' W 076°22'0 0.1
2017-Oct-12 12:29N 36°57' W 076°22'0 0.1
2017-Oct-12 11:20N 36°57' W 076°22'0 0.0
2017-Oct-12 10:59N 36°57' W 076°22'0 0.2
2017-Oct-12 10:23N 36°57' W 076°22'0 0.0
2017-Oct-10 19:14N 36°57' W 076°22'0 0.0
2017-Oct-10 18:56N 36°57' W 076°22'0 0.0
2017-Oct-10 11:44N 36°57' W 076°22'0 0.0
2017-Oct-10 11:28N 36°57' W 076°22'0 0.0
2017-Oct-10 10:50N 36°57' W 076°22'0 0.0
2017-Oct-10 10:29N 36°57' W 076°22'  
Track history (hours):
 
Tides and Currents Weather Stations Pressure Air Temp Water Temp Dewpoint Dewpoint Depression Visibility Wind Speed Wind Dir Waves Ship Positions

Lady Damla

Last reported at 2017-Oct-16 19:13 UTC. Time now 2017-Oct-18 11:14 UTC.
Position N 36°51' W 075°52'.

Length 170 m; draft 9.5 m.

Type: Cargo ship. MMSI: 538006352.

Date/timePositionNaut miles runAvg speedWind from/ knotsBaromVisibWave heightAir tempDewpointWater temp
2017-Oct-16 19:13N 36°51' W 075°52'212.1
2017-Oct-16 19:00N 36°53' W 075°54'612.1
2017-Oct-16 18:30N 36°57' W 075°60'611.6
2017-Oct-16 18:00N 36°58' W 076°07'1011.0
2017-Oct-16 17:04N 36°58' W 076°20'110.1
2017-Oct-16 16:57N 36°57' W 076°20'4 9.7
2017-Oct-16 16:30N 36°53' W 076°20'3 6.7
2017-Oct-16 16:00N 36°50' W 076°18'1 2.7
2017-Oct-16 15:30N 36°49' W 076°17'0 0.0
2017-Oct-16 14:59N 36°49' W 076°17'0 0.0
2017-Oct-16 14:30N 36°49' W 076°17'0 0.0
2017-Oct-16 13:29N 36°49' W 076°17'0 0.0
2017-Oct-16 13:00N 36°49' W 076°17'0 0.0
2017-Oct-16 12:30N 36°49' W 076°17'0 0.0
2017-Oct-16 12:00N 36°49' W 076°17'0 0.0
2017-Oct-16 11:29N 36°49' W 076°17'0 0.0
2017-Oct-16 11:00N 36°49' W 076°17'0 0.0
2017-Oct-16 10:29N 36°49' W 076°17'0 0.0
2017-Oct-16 09:59N 36°49' W 076°17'0 0.0
2017-Oct-16 09:29N 36°49' W 076°17'0 0.0
2017-Oct-16 09:00N 36°49' W 076°17'0 0.0
2017-Oct-16 08:30N 36°49' W 076°17'0 0.0
2017-Oct-16 08:00N 36°49' W 076°17'0 0.0
2017-Oct-16 07:30N 36°49' W 076°17'0 0.0
2017-Oct-16 07:00N 36°49' W 076°17'0 0.0
2017-Oct-16 06:26N 36°49' W 076°17'0 0.0
2017-Oct-16 05:59N 36°49' W 076°17'0 0.0
2017-Oct-16 05:29N 36°49' W 076°17'0 0.0
2017-Oct-16 04:59N 36°49' W 076°17'0 0.0
2017-Oct-16 04:29N 36°49' W 076°17'0 0.0
2017-Oct-16 03:59N 36°49' W 076°17'0 0.0
2017-Oct-16 03:29N 36°49' W 076°17'0 0.0
2017-Oct-16 03:00N 36°49' W 076°17'0 0.0
2017-Oct-16 02:29N 36°49' W 076°17'0 0.0
2017-Oct-16 02:00N 36°49' W 076°17'0 0.0
2017-Oct-16 01:29N 36°49' W 076°17'0 0.0
2017-Oct-16 00:59N 36°49' W 076°17'0 0.0
2017-Oct-16 00:29N 36°49' W 076°17'0 0.0
2017-Oct-15 23:59N 36°49' W 076°17'0 0.0
2017-Oct-15 23:30N 36°49' W 076°17'0 0.0
2017-Oct-15 22:59N 36°49' W 076°17'0 0.0
2017-Oct-15 22:30N 36°49' W 076°17'0 0.0
2017-Oct-15 21:59N 36°49' W 076°17'0 0.0
2017-Oct-15 21:30N 36°49' W 076°17'0 0.0
2017-Oct-15 20:59N 36°49' W 076°17'0 0.0
2017-Oct-15 20:30N 36°49' W 076°17'0 0.0
2017-Oct-15 20:00N 36°49' W 076°17'0 0.0
2017-Oct-15 19:30N 36°49' W 076°17'0 0.0
2017-Oct-15 15:44N 36°49' W 076°17'0 0.0
2017-Oct-15 15:27N 36°49' W 076°17'0 0.0
2017-Oct-15 15:00N 36°49' W 076°17'0 0.0
2017-Oct-15 13:59N 36°49' W 076°17'0 0.0
2017-Oct-15 13:29N 36°49' W 076°17'4 0.6
2017-Oct-15 06:39N 36°52' W 076°20'210.1
2017-Oct-15 06:28N 36°54' W 076°20'3 6.4
2017-Oct-15 05:57N 36°57' W 076°22'0 0.4
2017-Oct-15 05:26N 36°57' W 076°22'0 0.1
2017-Oct-15 04:59N 36°57' W 076°22'0 0.0
2017-Oct-15 04:29N 36°57' W 076°22'0 0.0
2017-Oct-15 03:53N 36°57' W 076°22'0 0.0
2017-Oct-15 03:29N 36°57' W 076°22'0 0.0
2017-Oct-15 02:08N 36°57' W 076°22'0 0.1
2017-Oct-15 01:56N 36°57' W 076°22'0 0.0
2017-Oct-15 01:20N 36°57' W 076°22'0 0.1
2017-Oct-15 00:56N 36°57' W 076°22'0 0.1
2017-Oct-15 00:26N 36°57' W 076°22'0 0.1
2017-Oct-14 22:23N 36°57' W 076°22'0 0.0
2017-Oct-14 21:59N 36°57' W 076°22'0 0.0
2017-Oct-14 21:26N 36°57' W 076°22'0 0.0
2017-Oct-14 19:20N 36°57' W 076°22'0 0.0
2017-Oct-14 18:53N 36°57' W 076°22'0 0.0
2017-Oct-14 18:23N 36°57' W 076°22'0 0.0
2017-Oct-14 17:44N 36°57' W 076°22'0 0.0
2017-Oct-14 17:08N 36°57' W 076°22'0 0.1
2017-Oct-14 16:47N 36°57' W 076°22'0 0.1
2017-Oct-14 16:29N 36°57' W 076°22'0 0.1
2017-Oct-14 15:59N 36°57' W 076°22'0 0.1
2017-Oct-14 15:29N 36°57' W 076°22'0 0.0
2017-Oct-14 14:59N 36°57' W 076°22'0 0.0
2017-Oct-14 14:23N 36°57' W 076°22'0 0.1
2017-Oct-14 13:59N 36°57' W 076°22'0 0.0
2017-Oct-14 12:44N 36°57' W 076°22'0 0.0
2017-Oct-14 12:26N 36°57' W 076°22'0 0.1
2017-Oct-14 11:59N 36°57' W 076°22'0 0.1
2017-Oct-14 11:26N 36°57' W 076°22'0 0.0
2017-Oct-14 04:35N 36°57' W 076°22'0 0.1
2017-Oct-14 04:29N 36°57' W 076°22'0 0.1
2017-Oct-14 03:56N 36°57' W 076°22'0 0.1
2017-Oct-14 03:29N 36°57' W 076°22'0 0.1
2017-Oct-14 02:59N 36°57' W 076°22'0 0.0
2017-Oct-14 02:23N 36°57' W 076°22'0 0.0
2017-Oct-13 21:53N 36°57' W 076°22'0 0.0
2017-Oct-13 21:08N 36°57' W 076°22'0 0.0
2017-Oct-13 20:59N 36°57' W 076°22'0 0.0
2017-Oct-13 20:26N 36°57' W 076°22'0 0.0
2017-Oct-13 17:23N 36°57' W 076°22'0 0.0
2017-Oct-13 14:47N 36°57' W 076°22'0 0.2
2017-Oct-13 14:29N 36°57' W 076°22'0 0.1
2017-Oct-13 13:59N 36°57' W 076°22'0 0.0
2017-Oct-13 13:29N 36°57' W 076°22'0 0.1
2017-Oct-13 12:56N 36°57' W 076°22'0 0.0
2017-Oct-13 12:23N 36°57' W 076°22'0 0.0
2017-Oct-13 11:56N 36°57' W 076°22'0 0.1
2017-Oct-13 11:29N 36°57' W 076°22'0 0.0
2017-Oct-13 00:53N 36°57' W 076°22'0 0.0
2017-Oct-13 00:26N 36°57' W 076°22'0 0.0
2017-Oct-12 15:14N 36°57' W 076°22'0 0.1
2017-Oct-12 14:59N 36°57' W 076°22'0 0.0
2017-Oct-12 14:29N 36°57' W 076°22'0 0.1
2017-Oct-12 13:23N 36°57' W 076°22'0 0.1
2017-Oct-12 12:59N 36°57' W 076°22'0 0.1
2017-Oct-12 12:29N 36°57' W 076°22'0 0.1
2017-Oct-12 11:20N 36°57' W 076°22'0 0.0
2017-Oct-12 10:59N 36°57' W 076°22'0 0.2
2017-Oct-12 10:23N 36°57' W 076°22'0 0.0
2017-Oct-10 19:14N 36°57' W 076°22'0 0.0
2017-Oct-10 18:56N 36°57' W 076°22'0 0.0
2017-Oct-10 11:44N 36°57' W 076°22'0 0.0
2017-Oct-10 11:28N 36°57' W 076°22'0 0.0
2017-Oct-10 10:50N 36°57' W 076°22'0 0.0
2017-Oct-10 10:29N 36°57' W 076°22'  

Dump ship's entire track history